sensor_id;sensor_type;location;lat;lon;timestamp;P1;durP1;ratioP1;P2;durP2;ratioP2
4428;SDS011;2227;47.810;8.810;2022-09-12T03:47:41;5.03;;;3.10;;
4428;SDS011;2227;47.810;8.810;2022-09-12T03:50:08;3.90;;;2.50;;
4428;SDS011;2227;47.810;8.810;2022-09-12T03:52:35;3.70;;;2.45;;
4428;SDS011;2227;47.810;8.810;2022-09-12T03:55:02;5.35;;;3.00;;
4428;SDS011;2227;47.810;8.810;2022-09-12T03:57:30;5.13;;;2.78;;
4428;SDS011;2227;47.810;8.810;2022-09-12T03:59:56;5.20;;;3.08;;
4428;SDS011;2227;47.810;8.810;2022-09-12T04:02:23;7.18;;;3.13;;
4428;SDS011;2227;47.810;8.810;2022-09-12T04:04:50;5.35;;;3.47;;
4428;SDS011;2227;47.810;8.810;2022-09-12T04:07:17;4.60;;;2.78;;
4428;SDS011;2227;47.810;8.810;2022-09-12T04:09:43;6.30;;;3.22;;
4428;SDS011;2227;47.810;8.810;2022-09-12T04:12:10;6.68;;;3.92;;
4428;SDS011;2227;47.810;8.810;2022-09-12T04:14:39;5.30;;;3.30;;
4428;SDS011;2227;47.810;8.810;2022-09-12T04:17:05;6.75;;;3.08;;
4428;SDS011;2227;47.810;8.810;2022-09-12T04:19:32;5.85;;;3.35;;
4428;SDS011;2227;47.810;8.810;2022-09-12T04:21:59;7.22;;;3.60;;
4428;SDS011;2227;47.810;8.810;2022-09-12T04:24:26;5.78;;;3.40;;
4428;SDS011;2227;47.810;8.810;2022-09-12T04:26:53;4.55;;;3.03;;
4428;SDS011;2227;47.810;8.810;2022-09-12T04:29:20;5.65;;;2.67;;
4428;SDS011;2227;47.810;8.810;2022-09-12T04:31:47;5.20;;;2.97;;
4428;SDS011;2227;47.810;8.810;2022-09-12T04:34:14;4.45;;;2.78;;
4428;SDS011;2227;47.810;8.810;2022-09-12T04:36:41;4.32;;;2.63;;
4428;SDS011;2227;47.810;8.810;2022-09-12T04:39:08;6.47;;;4.35;;
4428;SDS011;2227;47.810;8.810;2022-09-12T04:41:37;5.78;;;3.90;;
4428;SDS011;2227;47.810;8.810;2022-09-12T04:44:14;7.93;;;4.00;;
4428;SDS011;2227;47.810;8.810;2022-09-12T04:46:42;6.40;;;3.92;;
4428;SDS011;2227;47.810;8.810;2022-09-12T04:49:11;7.32;;;5.25;;
4428;SDS011;2227;47.810;8.810;2022-09-12T04:51:41;9.68;;;6.70;;
4428;SDS011;2227;47.810;8.810;2022-09-12T04:54:13;8.93;;;6.70;;
4428;SDS011;2227;47.810;8.810;2022-09-12T04:56:44;7.35;;;4.72;;
4428;SDS011;2227;47.810;8.810;2022-09-12T04:59:14;6.80;;;4.78;;
4428;SDS011;2227;47.810;8.810;2022-09-12T05:01:43;8.43;;;4.57;;
4428;SDS011;2227;47.810;8.810;2022-09-12T05:04:10;7.90;;;4.75;;
4428;SDS011;2227;47.810;8.810;2022-09-12T05:06:38;7.45;;;4.55;;
4428;SDS011;2227;47.810;8.810;2022-09-12T05:09:06;7.07;;;3.80;;
4428;SDS011;2227;47.810;8.810;2022-09-12T05:11:37;8.70;;;4.10;;
4428;SDS011;2227;47.810;8.810;2022-09-12T05:14:25;13.13;;;4.88;;
4428;SDS011;2227;47.810;8.810;2022-09-12T05:16:52;8.80;;;4.00;;
4428;SDS011;2227;47.810;8.810;2022-09-12T05:19:19;15.00;;;3.95;;
4428;SDS011;2227;47.810;8.810;2022-09-12T05:21:45;11.48;;;4.40;;
4428;SDS011;2227;47.810;8.810;2022-09-12T05:24:12;12.43;;;4.85;;
4428;SDS011;2227;47.810;8.810;2022-09-12T05:26:39;9.05;;;4.55;;
4428;SDS011;2227;47.810;8.810;2022-09-12T05:29:06;8.77;;;3.88;;
4428;SDS011;2227;47.810;8.810;2022-09-12T05:31:32;10.35;;;4.00;;
4428;SDS011;2227;47.810;8.810;2022-09-12T05:34:00;8.27;;;3.58;;
4428;SDS011;2227;47.810;8.810;2022-09-12T05:36:29;11.52;;;5.13;;
4428;SDS011;2227;47.810;8.810;2022-09-12T05:38:57;7.30;;;3.80;;
4428;SDS011;2227;47.810;8.810;2022-09-12T05:41:29;7.93;;;4.30;;
4428;SDS011;2227;47.810;8.810;2022-09-12T05:43:58;7.22;;;4.00;;
4428;SDS011;2227;47.810;8.810;2022-09-12T05:46:28;7.07;;;4.45;;
4428;SDS011;2227;47.810;8.810;2022-09-12T05:49:02;7.47;;;4.18;;
4428;SDS011;2227;47.810;8.810;2022-09-12T05:51:34;8.73;;;3.90;;
4428;SDS011;2227;47.810;8.810;2022-09-12T05:54:04;7.00;;;4.22;;
4428;SDS011;2227;47.810;8.810;2022-09-12T05:56:33;6.95;;;3.53;;
4428;SDS011;2227;47.810;8.810;2022-09-12T05:59:10;10.55;;;5.15;;
4428;SDS011;2227;47.810;8.810;2022-09-12T06:01:39;10.45;;;5.15;;
4428;SDS011;2227;47.810;8.810;2022-09-12T06:04:06;12.85;;;4.53;;
4428;SDS011;2227;47.810;8.810;2022-09-12T06:06:39;15.43;;;4.28;;
4428;SDS011;2227;47.810;8.810;2022-09-12T06:09:07;11.73;;;5.03;;
4428;SDS011;2227;47.810;8.810;2022-09-12T06:11:35;11.25;;;4.10;;
4428;SDS011;2227;47.810;8.810;2022-09-12T06:14:06;8.98;;;3.85;;
4428;SDS011;2227;47.810;8.810;2022-09-12T06:16:35;9.10;;;3.80;;
4428;SDS011;2227;47.810;8.810;2022-09-12T06:19:03;10.57;;;4.40;;
4428;SDS011;2227;47.810;8.810;2022-09-12T06:21:32;9.23;;;3.63;;
4428;SDS011;2227;47.810;8.810;2022-09-12T06:24:00;10.18;;;3.38;;
4428;SDS011;2227;47.810;8.810;2022-09-12T06:26:28;6.25;;;3.28;;
4428;SDS011;2227;47.810;8.810;2022-09-12T06:28:55;7.55;;;3.92;;
4428;SDS011;2227;47.810;8.810;2022-09-12T06:31:27;5.95;;;3.22;;
4428;SDS011;2227;47.810;8.810;2022-09-12T06:33:58;6.55;;;3.55;;
4428;SDS011;2227;47.810;8.810;2022-09-12T06:36:33;5.97;;;3.78;;
4428;SDS011;2227;47.810;8.810;2022-09-12T06:39:04;9.82;;;3.50;;
4428;SDS011;2227;47.810;8.810;2022-09-12T06:41:33;7.68;;;3.35;;
4428;SDS011;2227;47.810;8.810;2022-09-12T06:44:00;7.10;;;3.17;;
4428;SDS011;2227;47.810;8.810;2022-09-12T06:46:27;5.50;;;3.53;;
4428;SDS011;2227;47.810;8.810;2022-09-12T06:48:56;6.30;;;3.85;;
4428;SDS011;2227;47.810;8.810;2022-09-12T06:51:25;9.63;;;4.28;;
4428;SDS011;2227;47.810;8.810;2022-09-12T06:53:55;6.32;;;3.70;;
4428;SDS011;2227;47.810;8.810;2022-09-12T06:56:25;7.72;;;3.70;;
4428;SDS011;2227;47.810;8.810;2022-09-12T06:58:54;6.68;;;3.90;;
4428;SDS011;2227;47.810;8.810;2022-09-12T07:01:26;8.27;;;3.90;;
4428;SDS011;2227;47.810;8.810;2022-09-12T07:03:58;6.40;;;3.92;;
4428;SDS011;2227;47.810;8.810;2022-09-12T07:06:28;6.90;;;3.70;;
4428;SDS011;2227;47.810;8.810;2022-09-12T07:08:57;6.50;;;3.90;;
4428;SDS011;2227;47.810;8.810;2022-09-12T07:11:30;4.60;;;3.33;;
4428;SDS011;2227;47.810;8.810;2022-09-12T07:13:59;8.55;;;4.20;;
4428;SDS011;2227;47.810;8.810;2022-09-12T07:16:27;8.15;;;3.97;;
4428;SDS011;2227;47.810;8.810;2022-09-12T07:18:56;5.18;;;3.50;;
4428;SDS011;2227;47.810;8.810;2022-09-12T07:21:24;6.55;;;4.05;;
4428;SDS011;2227;47.810;8.810;2022-09-12T07:23:52;5.38;;;3.88;;
4428;SDS011;2227;47.810;8.810;2022-09-12T07:26:24;6.97;;;3.92;;
4428;SDS011;2227;47.810;8.810;2022-09-12T07:28:52;5.93;;;4.07;;
4428;SDS011;2227;47.810;8.810;2022-09-12T07:31:40;8.15;;;3.53;;
4428;SDS011;2227;47.810;8.810;2022-09-12T07:34:07;4.95;;;3.47;;
4428;SDS011;2227;47.810;8.810;2022-09-12T07:36:34;4.75;;;3.15;;
4428;SDS011;2227;47.810;8.810;2022-09-12T07:39:02;5.30;;;3.35;;
4428;SDS011;2227;47.810;8.810;2022-09-12T07:41:29;5.78;;;4.00;;
4428;SDS011;2227;47.810;8.810;2022-09-12T07:43:59;7.55;;;3.25;;
4428;SDS011;2227;47.810;8.810;2022-09-12T07:46:28;5.10;;;3.60;;
4428;SDS011;2227;47.810;8.810;2022-09-12T07:48:57;7.32;;;3.45;;
4428;SDS011;2227;47.810;8.810;2022-09-12T07:51:25;4.72;;;3.50;;
4428;SDS011;2227;47.810;8.810;2022-09-12T07:53:53;6.32;;;3.40;;
4428;SDS011;2227;47.810;8.810;2022-09-12T07:56:21;5.13;;;3.40;;
4428;SDS011;2227;47.810;8.810;2022-09-12T07:58:55;5.43;;;2.70;;
4428;SDS011;2227;47.810;8.810;2022-09-12T08:01:22;5.13;;;2.70;;
4428;SDS011;2227;47.810;8.810;2022-09-12T08:03:52;4.90;;;2.72;;
4428;SDS011;2227;47.810;8.810;2022-09-12T08:06:21;5.55;;;2.70;;
4428;SDS011;2227;47.810;8.810;2022-09-12T08:08:50;3.88;;;2.55;;
4428;SDS011;2227;47.810;8.810;2022-09-12T08:11:18;3.95;;;2.50;;
4428;SDS011;2227;47.810;8.810;2022-09-12T08:13:47;5.28;;;2.67;;
4428;SDS011;2227;47.810;8.810;2022-09-12T08:16:21;3.63;;;2.22;;
4428;SDS011;2227;47.810;8.810;2022-09-12T08:18:49;3.80;;;2.13;;
4428;SDS011;2227;47.810;8.810;2022-09-12T08:21:17;3.28;;;1.95;;
4428;SDS011;2227;47.810;8.810;2022-09-12T08:23:51;3.33;;;1.80;;
4428;SDS011;2227;47.810;8.810;2022-09-12T08:26:20;4.10;;;1.95;;
4428;SDS011;2227;47.810;8.810;2022-09-12T08:28:46;4.00;;;1.65;;
4428;SDS011;2227;47.810;8.810;2022-09-12T08:31:15;5.75;;;1.95;;
4428;SDS011;2227;47.810;8.810;2022-09-12T08:33:43;5.03;;;2.08;;
4428;SDS011;2227;47.810;8.810;2022-09-12T08:36:18;3.72;;;1.77;;
4428;SDS011;2227;47.810;8.810;2022-09-12T08:38:50;3.80;;;2.20;;
4428;SDS011;2227;47.810;8.810;2022-09-12T08:41:32;5.10;;;2.13;;
4428;SDS011;2227;47.810;8.810;2022-09-12T08:50:01;5.82;;;2.35;;
4428;SDS011;2227;47.810;8.810;2022-09-12T08:52:30;3.08;;;1.48;;
4428;SDS011;2227;47.810;8.810;2022-09-12T08:55:00;3.95;;;1.70;;
4428;SDS011;2227;47.810;8.810;2022-09-12T08:57:27;3.05;;;2.00;;
4428;SDS011;2227;47.810;8.810;2022-09-12T08:59:54;2.40;;;1.40;;
4428;SDS011;2227;47.810;8.810;2022-09-12T09:02:36;2.90;;;1.60;;
4428;SDS011;2227;47.810;8.810;2022-09-12T09:05:29;3.58;;;1.67;;
4428;SDS011;2227;47.810;8.810;2022-09-12T09:16:23;5.45;;;1.58;;
4428;SDS011;2227;47.810;8.810;2022-09-12T09:18:52;6.95;;;1.80;;
4428;SDS011;2227;47.810;8.810;2022-09-12T09:21:23;3.42;;;2.00;;
4428;SDS011;2227;47.810;8.810;2022-09-12T09:24:13;4.38;;;1.67;;
4428;SDS011;2227;47.810;8.810;2022-09-12T09:26:55;5.68;;;1.80;;
4428;SDS011;2227;47.810;8.810;2022-09-12T09:29:27;3.35;;;1.70;;
4428;SDS011;2227;47.810;8.810;2022-09-12T09:31:59;3.17;;;1.95;;
4428;SDS011;2227;47.810;8.810;2022-09-12T09:34:29;3.60;;;1.58;;
4428;SDS011;2227;47.810;8.810;2022-09-12T09:45:00;2.50;;;1.70;;
4428;SDS011;2227;47.810;8.810;2022-09-12T09:47:29;2.45;;;1.38;;
4428;SDS011;2227;47.810;8.810;2022-09-12T09:49:56;6.38;;;1.90;;
4428;SDS011;2227;47.810;8.810;2022-09-12T09:52:24;2.65;;;1.42;;
4428;SDS011;2227;47.810;8.810;2022-09-12T09:54:56;3.37;;;1.43;;
4428;SDS011;2227;47.810;8.810;2022-09-12T10:03:06;2.40;;;1.23;;
4428;SDS011;2227;47.810;8.810;2022-09-12T10:05:58;8.38;;;1.70;;
4428;SDS011;2227;47.810;8.810;2022-09-12T10:08:30;3.10;;;1.50;;
4428;SDS011;2227;47.810;8.810;2022-09-12T10:13:33;2.80;;;1.25;;
4428;SDS011;2227;47.810;8.810;2022-09-12T10:16:16;2.25;;;1.25;;
4428;SDS011;2227;47.810;8.810;2022-09-12T10:18:55;2.15;;;1.40;;
4428;SDS011;2227;47.810;8.810;2022-09-12T10:21:44;3.05;;;1.30;;
4428;SDS011;2227;47.810;8.810;2022-09-12T10:26:47;2.83;;;1.48;;
4428;SDS011;2227;47.810;8.810;2022-09-12T10:29:24;3.50;;;1.63;;
4428;SDS011;2227;47.810;8.810;2022-09-12T10:31:56;2.40;;;1.40;;
4428;SDS011;2227;47.810;8.810;2022-09-12T10:34:30;2.88;;;1.20;;
4428;SDS011;2227;47.810;8.810;2022-09-12T10:37:06;3.65;;;1.70;;
4428;SDS011;2227;47.810;8.810;2022-09-12T10:39:53;4.00;;;1.58;;
4428;SDS011;2227;47.810;8.810;2022-09-12T10:45:22;3.03;;;1.52;;
4428;SDS011;2227;47.810;8.810;2022-09-12T10:47:55;3.80;;;1.73;;
4428;SDS011;2227;47.810;8.810;2022-09-12T10:53:11;4.03;;;1.58;;
4428;SDS011;2227;47.810;8.810;2022-09-12T10:55:38;4.43;;;1.95;;
4428;SDS011;2227;47.810;8.810;2022-09-12T11:07:09;3.42;;;1.60;;
4428;SDS011;2227;47.810;8.810;2022-09-12T11:20:25;3.70;;;1.67;;
4428;SDS011;2227;47.810;8.810;2022-09-12T11:23:08;3.78;;;1.70;;
4428;SDS011;2227;47.810;8.810;2022-09-12T11:25:42;2.88;;;1.63;;
4428;SDS011;2227;47.810;8.810;2022-09-12T11:28:30;3.88;;;2.10;;
4428;SDS011;2227;47.810;8.810;2022-09-12T11:31:32;3.45;;;1.88;;
4428;SDS011;2227;47.810;8.810;2022-09-12T11:34:27;6.57;;;1.80;;
4428;SDS011;2227;47.810;8.810;2022-09-12T11:37:05;6.10;;;1.67;;
4428;SDS011;2227;47.810;8.810;2022-09-12T11:39:53;6.15;;;2.13;;
4428;SDS011;2227;47.810;8.810;2022-09-12T11:42:28;4.60;;;1.70;;
4428;SDS011;2227;47.810;8.810;2022-09-12T11:45:00;3.13;;;1.88;;
4428;SDS011;2227;47.810;8.810;2022-09-12T11:47:37;2.33;;;1.40;;
4428;SDS011;2227;47.810;8.810;2022-09-12T11:50:14;3.60;;;1.75;;
4428;SDS011;2227;47.810;8.810;2022-09-12T11:52:48;2.63;;;1.55;;
4428;SDS011;2227;47.810;8.810;2022-09-12T11:55:17;3.83;;;1.60;;
4428;SDS011;2227;47.810;8.810;2022-09-12T11:57:55;4.05;;;1.60;;
4428;SDS011;2227;47.810;8.810;2022-09-12T12:05:59;5.28;;;1.52;;
4428;SDS011;2227;47.810;8.810;2022-09-12T12:08:36;3.05;;;1.58;;
4428;SDS011;2227;47.810;8.810;2022-09-12T12:11:05;2.85;;;1.38;;
4428;SDS011;2227;47.810;8.810;2022-09-12T12:13:38;2.38;;;1.38;;
4428;SDS011;2227;47.810;8.810;2022-09-12T12:16:20;20.35;;;4.20;;
4428;SDS011;2227;47.810;8.810;2022-09-12T12:18:59;3.20;;;1.23;;
4428;SDS011;2227;47.810;8.810;2022-09-12T12:21:35;3.25;;;1.95;;
4428;SDS011;2227;47.810;8.810;2022-09-12T12:29:06;10.50;;;2.00;;
4428;SDS011;2227;47.810;8.810;2022-09-12T12:32:26;5.15;;;1.60;;
4428;SDS011;2227;47.810;8.810;2022-09-12T12:34:34;3.92;;;1.95;;
4428;SDS011;2227;47.810;8.810;2022-09-12T12:39:55;8.75;;;1.80;;
4428;SDS011;2227;47.810;8.810;2022-09-12T12:50:02;3.70;;;1.45;;
4428;SDS011;2227;47.810;8.810;2022-09-12T12:52:30;2.95;;;1.25;;
4428;SDS011;2227;47.810;8.810;2022-09-12T12:55:13;3.30;;;1.25;;
4428;SDS011;2227;47.810;8.810;2022-09-12T12:57:48;3.15;;;1.20;;
4428;SDS011;2227;47.810;8.810;2022-09-12T13:05:25;3.50;;;1.33;;
4428;SDS011;2227;47.810;8.810;2022-09-12T13:08:05;14.55;;;2.67;;
4428;SDS011;2227;47.810;8.810;2022-09-12T13:10:35;3.42;;;1.45;;
4428;SDS011;2227;47.810;8.810;2022-09-12T13:13:03;2.80;;;1.35;;
4428;SDS011;2227;47.810;8.810;2022-09-12T13:18:10;3.47;;;1.52;;
4428;SDS011;2227;47.810;8.810;2022-09-12T13:21:02;3.38;;;1.60;;
4428;SDS011;2227;47.810;8.810;2022-09-12T13:23:35;4.22;;;1.88;;
4428;SDS011;2227;47.810;8.810;2022-09-12T13:26:02;3.05;;;1.58;;
4428;SDS011;2227;47.810;8.810;2022-09-12T13:28:35;2.50;;;1.17;;
4428;SDS011;2227;47.810;8.810;2022-09-12T13:31:07;4.93;;;1.55;;
4428;SDS011;2227;47.810;8.810;2022-09-12T13:39:03;3.08;;;1.38;;
4428;SDS011;2227;47.810;8.810;2022-09-12T13:44:58;8.77;;;2.10;;
4428;SDS011;2227;47.810;8.810;2022-09-12T13:47:47;7.38;;;1.92;;
4428;SDS011;2227;47.810;8.810;2022-09-12T13:50:25;3.75;;;1.60;;
4428;SDS011;2227;47.810;8.810;2022-09-12T13:52:54;4.70;;;1.70;;
4428;SDS011;2227;47.810;8.810;2022-09-12T13:58:05;4.35;;;1.40;;
4428;SDS011;2227;47.810;8.810;2022-09-12T14:00:40;2.55;;;1.25;;
4428;SDS011;2227;47.810;8.810;2022-09-12T14:03:23;3.45;;;1.50;;
4428;SDS011;2227;47.810;8.810;2022-09-12T14:06:13;3.03;;;1.50;;
4428;SDS011;2227;47.810;8.810;2022-09-12T14:08:42;3.65;;;1.40;;
4428;SDS011;2227;47.810;8.810;2022-09-12T14:11:10;3.20;;;1.10;;
4428;SDS011;2227;47.810;8.810;2022-09-12T14:13:37;3.42;;;1.20;;
4428;SDS011;2227;47.810;8.810;2022-09-12T14:16:04;2.78;;;1.30;;
4428;SDS011;2227;47.810;8.810;2022-09-12T14:18:35;5.38;;;1.92;;
4428;SDS011;2227;47.810;8.810;2022-09-12T14:21:07;2.35;;;1.10;;
4428;SDS011;2227;47.810;8.810;2022-09-12T14:23:40;4.85;;;1.65;;
4428;SDS011;2227;47.810;8.810;2022-09-12T14:26:10;2.88;;;1.40;;
4428;SDS011;2227;47.810;8.810;2022-09-12T14:28:39;4.72;;;1.20;;
4428;SDS011;2227;47.810;8.810;2022-09-12T14:33:54;4.10;;;1.50;;
4428;SDS011;2227;47.810;8.810;2022-09-12T14:36:41;4.13;;;1.40;;
4428;SDS011;2227;47.810;8.810;2022-09-12T14:39:15;3.28;;;1.55;;
4428;SDS011;2227;47.810;8.810;2022-09-12T14:42:04;2.60;;;1.30;;
4428;SDS011;2227;47.810;8.810;2022-09-12T14:44:36;5.72;;;1.50;;
4428;SDS011;2227;47.810;8.810;2022-09-12T14:47:17;3.78;;;1.33;;
4428;SDS011;2227;47.810;8.810;2022-09-12T14:49:47;2.55;;;1.10;;
4428;SDS011;2227;47.810;8.810;2022-09-12T14:54:56;4.63;;;1.70;;
4428;SDS011;2227;47.810;8.810;2022-09-12T14:57:35;2.85;;;1.35;;
4428;SDS011;2227;47.810;8.810;2022-09-12T15:00:22;4.18;;;1.40;;
4428;SDS011;2227;47.810;8.810;2022-09-12T15:02:49;5.18;;;1.65;;
4428;SDS011;2227;47.810;8.810;2022-09-12T15:05:22;2.20;;;1.23;;
4428;SDS011;2227;47.810;8.810;2022-09-12T15:07:55;3.53;;;1.20;;
4428;SDS011;2227;47.810;8.810;2022-09-12T15:10:33;4.53;;;1.40;;
4428;SDS011;2227;47.810;8.810;2022-09-12T15:15:31;4.03;;;1.60;;
4428;SDS011;2227;47.810;8.810;2022-09-12T15:17:58;3.08;;;1.30;;
4428;SDS011;2227;47.810;8.810;2022-09-12T15:20:31;4.05;;;1.20;;
4428;SDS011;2227;47.810;8.810;2022-09-12T15:22:58;6.00;;;1.75;;
4428;SDS011;2227;47.810;8.810;2022-09-12T15:25:25;2.50;;;1.15;;
4428;SDS011;2227;47.810;8.810;2022-09-12T15:27:52;19.02;;;2.63;;
4428;SDS011;2227;47.810;8.810;2022-09-12T15:30:21;3.65;;;1.45;;
4428;SDS011;2227;47.810;8.810;2022-09-12T15:32:47;4.05;;;1.50;;
4428;SDS011;2227;47.810;8.810;2022-09-12T15:35:19;5.35;;;1.60;;
4428;SDS011;2227;47.810;8.810;2022-09-12T15:37:49;3.45;;;1.30;;
4428;SDS011;2227;47.810;8.810;2022-09-12T15:40:16;3.10;;;0.93;;
4428;SDS011;2227;47.810;8.810;2022-09-12T15:42:44;2.03;;;1.00;;
4428;SDS011;2227;47.810;8.810;2022-09-12T15:45:26;2.22;;;1.25;;
4428;SDS011;2227;47.810;8.810;2022-09-12T15:47:57;2.67;;;1.10;;
4428;SDS011;2227;47.810;8.810;2022-09-12T15:50:23;1.75;;;0.93;;
4428;SDS011;2227;47.810;8.810;2022-09-12T15:52:50;2.58;;;0.95;;
4428;SDS011;2227;47.810;8.810;2022-09-12T15:55:18;3.40;;;1.00;;
4428;SDS011;2227;47.810;8.810;2022-09-12T15:57:47;4.25;;;0.90;;
4428;SDS011;2227;47.810;8.810;2022-09-12T16:00:15;2.58;;;0.80;;
4428;SDS011;2227;47.810;8.810;2022-09-12T16:02:43;1.92;;;0.90;;
4428;SDS011;2227;47.810;8.810;2022-09-12T16:05:15;4.47;;;1.10;;
4428;SDS011;2227;47.810;8.810;2022-09-12T16:07:44;4.55;;;1.23;;
4428;SDS011;2227;47.810;8.810;2022-09-12T16:10:17;2.97;;;1.15;;
4428;SDS011;2227;47.810;8.810;2022-09-12T16:12:49;2.85;;;0.93;;
4428;SDS011;2227;47.810;8.810;2022-09-12T16:15:21;6.72;;;1.55;;
4428;SDS011;2227;47.810;8.810;2022-09-12T16:20:16;2.67;;;0.93;;
4428;SDS011;2227;47.810;8.810;2022-09-12T16:22:44;3.50;;;1.20;;
4428;SDS011;2227;47.810;8.810;2022-09-12T16:25:11;3.42;;;1.08;;
4428;SDS011;2227;47.810;8.810;2022-09-12T16:27:38;3.88;;;1.20;;
4428;SDS011;2227;47.810;8.810;2022-09-12T16:30:05;4.30;;;1.10;;
4428;SDS011;2227;47.810;8.810;2022-09-12T16:32:33;5.40;;;1.15;;
4428;SDS011;2227;47.810;8.810;2022-09-12T16:35:00;4.75;;;1.23;;
4428;SDS011;2227;47.810;8.810;2022-09-12T16:37:27;4.78;;;1.20;;
4428;SDS011;2227;47.810;8.810;2022-09-12T16:39:54;9.73;;;1.48;;
4428;SDS011;2227;47.810;8.810;2022-09-12T16:42:21;2.67;;;1.20;;
4428;SDS011;2227;47.810;8.810;2022-09-12T16:44:48;6.15;;;1.30;;
4428;SDS011;2227;47.810;8.810;2022-09-12T16:47:14;3.85;;;1.23;;
4428;SDS011;2227;47.810;8.810;2022-09-12T16:49:41;4.22;;;1.30;;
4428;SDS011;2227;47.810;8.810;2022-09-12T16:52:08;4.10;;;1.55;;
4428;SDS011;2227;47.810;8.810;2022-09-12T16:54:35;5.50;;;1.38;;
4428;SDS011;2227;47.810;8.810;2022-09-12T16:57:02;9.48;;;1.63;;
4428;SDS011;2227;47.810;8.810;2022-09-12T16:59:30;6.93;;;1.95;;
4428;SDS011;2227;47.810;8.810;2022-09-12T17:01:57;2.13;;;1.00;;
4428;SDS011;2227;47.810;8.810;2022-09-12T17:04:24;4.90;;;1.38;;
4428;SDS011;2227;47.810;8.810;2022-09-12T17:06:51;7.05;;;1.60;;
4428;SDS011;2227;47.810;8.810;2022-09-12T17:09:17;2.95;;;0.80;;
4428;SDS011;2227;47.810;8.810;2022-09-12T17:11:45;3.42;;;1.08;;
4428;SDS011;2227;47.810;8.810;2022-09-12T17:14:12;2.22;;;1.00;;
4428;SDS011;2227;47.810;8.810;2022-09-12T17:16:40;2.15;;;1.05;;
4428;SDS011;2227;47.810;8.810;2022-09-12T17:19:19;4.35;;;1.30;;
4428;SDS011;2227;47.810;8.810;2022-09-12T17:21:55;3.30;;;1.08;;
4428;SDS011;2227;47.810;8.810;2022-09-12T17:24:22;2.70;;;1.20;;
4428;SDS011;2227;47.810;8.810;2022-09-12T17:26:49;3.58;;;1.20;;
4428;SDS011;2227;47.810;8.810;2022-09-12T17:29:16;3.00;;;1.15;;
4428;SDS011;2227;47.810;8.810;2022-09-12T17:31:43;2.67;;;1.00;;
4428;SDS011;2227;47.810;8.810;2022-09-12T17:34:10;1.63;;;0.77;;
4428;SDS011;2227;47.810;8.810;2022-09-12T17:36:40;1.55;;;1.00;;
4428;SDS011;2227;47.810;8.810;2022-09-12T17:39:10;2.33;;;1.15;;
4428;SDS011;2227;47.810;8.810;2022-09-12T17:41:38;5.30;;;1.20;;
4428;SDS011;2227;47.810;8.810;2022-09-12T17:44:08;9.77;;;2.25;;
4428;SDS011;2227;47.810;8.810;2022-09-12T17:46:37;7.38;;;3.55;;
4428;SDS011;2227;47.810;8.810;2022-09-12T17:49:09;2.50;;;0.80;;
4428;SDS011;2227;47.810;8.810;2022-09-12T17:51:38;4.25;;;1.27;;
4428;SDS011;2227;47.810;8.810;2022-09-12T17:54:06;5.97;;;1.65;;
4428;SDS011;2227;47.810;8.810;2022-09-12T17:56:38;2.13;;;0.93;;
4428;SDS011;2227;47.810;8.810;2022-09-12T17:59:05;3.38;;;1.10;;
4428;SDS011;2227;47.810;8.810;2022-09-12T18:01:33;4.72;;;1.02;;
4428;SDS011;2227;47.810;8.810;2022-09-12T18:04:19;1.65;;;0.70;;
4428;SDS011;2227;47.810;8.810;2022-09-12T18:06:46;4.63;;;1.15;;
4428;SDS011;2227;47.810;8.810;2022-09-12T18:09:15;2.25;;;1.20;;
4428;SDS011;2227;47.810;8.810;2022-09-12T18:11:44;3.67;;;1.17;;
4428;SDS011;2227;47.810;8.810;2022-09-12T18:14:13;1.58;;;1.00;;
4428;SDS011;2227;47.810;8.810;2022-09-12T18:16:40;2.85;;;1.02;;
4428;SDS011;2227;47.810;8.810;2022-09-12T18:19:08;3.70;;;1.30;;
4428;SDS011;2227;47.810;8.810;2022-09-12T18:21:36;3.15;;;1.30;;
4428;SDS011;2227;47.810;8.810;2022-09-12T18:24:03;4.05;;;1.20;;
4428;SDS011;2227;47.810;8.810;2022-09-12T18:26:30;3.05;;;1.17;;
4428;SDS011;2227;47.810;8.810;2022-09-12T18:28:58;3.35;;;1.15;;
4428;SDS011;2227;47.810;8.810;2022-09-12T18:31:25;3.47;;;1.20;;
4428;SDS011;2227;47.810;8.810;2022-09-12T18:33:55;2.80;;;1.17;;
4428;SDS011;2227;47.810;8.810;2022-09-12T18:36:22;5.88;;;3.22;;
4428;SDS011;2227;47.810;8.810;2022-09-12T18:38:49;6.55;;;3.05;;
4428;SDS011;2227;47.810;8.810;2022-09-12T18:41:20;4.30;;;1.77;;
4428;SDS011;2227;47.810;8.810;2022-09-12T18:43:48;4.53;;;2.75;;
4428;SDS011;2227;47.810;8.810;2022-09-12T18:46:19;3.75;;;1.70;;
4428;SDS011;2227;47.810;8.810;2022-09-12T18:48:46;3.05;;;1.60;;
4428;SDS011;2227;47.810;8.810;2022-09-12T18:51:19;4.50;;;1.77;;
4428;SDS011;2227;47.810;8.810;2022-09-12T18:53:48;4.40;;;2.08;;
4428;SDS011;2227;47.810;8.810;2022-09-12T18:56:20;5.93;;;3.47;;
4428;SDS011;2227;47.810;8.810;2022-09-12T18:58:49;8.40;;;5.57;;
4428;SDS011;2227;47.810;8.810;2022-09-12T19:01:21;4.93;;;1.65;;
4428;SDS011;2227;47.810;8.810;2022-09-12T19:03:49;4.78;;;1.60;;
4428;SDS011;2227;47.810;8.810;2022-09-12T19:06:18;4.07;;;1.80;;
4428;SDS011;2227;47.810;8.810;2022-09-12T19:08:47;9.60;;;6.53;;
4428;SDS011;2227;47.810;8.810;2022-09-12T19:11:15;8.02;;;3.58;;
4428;SDS011;2227;47.810;8.810;2022-09-12T19:13:43;7.75;;;4.47;;
4428;SDS011;2227;47.810;8.810;2022-09-12T19:16:12;5.00;;;1.80;;
4428;SDS011;2227;47.810;8.810;2022-09-12T19:18:40;5.68;;;2.97;;
4428;SDS011;2227;47.810;8.810;2022-09-12T19:21:12;3.85;;;2.00;;
4428;SDS011;2227;47.810;8.810;2022-09-12T19:23:40;12.02;;;3.80;;
4428;SDS011;2227;47.810;8.810;2022-09-12T19:26:08;6.38;;;3.90;;
4428;SDS011;2227;47.810;8.810;2022-09-12T19:28:36;10.45;;;3.80;;
4428;SDS011;2227;47.810;8.810;2022-09-12T19:31:08;9.88;;;5.60;;
4428;SDS011;2227;47.810;8.810;2022-09-12T19:33:37;10.07;;;5.90;;
4428;SDS011;2227;47.810;8.810;2022-09-12T19:36:05;7.50;;;4.95;;
4428;SDS011;2227;47.810;8.810;2022-09-12T19:38:53;8.20;;;2.95;;
4428;SDS011;2227;47.810;8.810;2022-09-12T19:41:20;7.78;;;2.53;;
4428;SDS011;2227;47.810;8.810;2022-09-12T19:43:47;6.05;;;2.25;;
4428;SDS011;2227;47.810;8.810;2022-09-12T19:46:17;4.50;;;1.90;;
4428;SDS011;2227;47.810;8.810;2022-09-12T19:48:45;4.55;;;1.85;;
4428;SDS011;2227;47.810;8.810;2022-09-12T19:51:13;2.88;;;1.88;;
4428;SDS011;2227;47.810;8.810;2022-09-12T19:53:40;2.85;;;1.60;;
4428;SDS011;2227;47.810;8.810;2022-09-12T19:56:09;4.53;;;2.67;;
4428;SDS011;2227;47.810;8.810;2022-09-12T19:58:38;7.00;;;3.97;;
4428;SDS011;2227;47.810;8.810;2022-09-12T20:01:07;5.05;;;2.58;;
4428;SDS011;2227;47.810;8.810;2022-09-12T20:03:39;4.53;;;2.10;;
4428;SDS011;2227;47.810;8.810;2022-09-12T20:06:08;3.88;;;1.88;;
4428;SDS011;2227;47.810;8.810;2022-09-12T20:08:36;3.97;;;1.70;;
4428;SDS011;2227;47.810;8.810;2022-09-12T20:11:05;4.97;;;1.77;;
4428;SDS011;2227;47.810;8.810;2022-09-12T20:13:32;3.63;;;1.98;;
4428;SDS011;2227;47.810;8.810;2022-09-12T20:16:09;3.13;;;1.83;;
4428;SDS011;2227;47.810;8.810;2022-09-12T20:18:46;2.58;;;1.65;;
4428;SDS011;2227;47.810;8.810;2022-09-12T20:21:15;5.03;;;2.05;;
4428;SDS011;2227;47.810;8.810;2022-09-12T20:23:44;3.22;;;1.77;;
4428;SDS011;2227;47.810;8.810;2022-09-12T20:26:11;4.78;;;1.35;;
4428;SDS011;2227;47.810;8.810;2022-09-12T20:28:39;3.05;;;1.85;;
4428;SDS011;2227;47.810;8.810;2022-09-12T20:31:07;5.00;;;1.85;;
4428;SDS011;2227;47.810;8.810;2022-09-12T20:33:36;2.97;;;1.70;;
4428;SDS011;2227;47.810;8.810;2022-09-12T20:36:04;2.20;;;1.58;;
4428;SDS011;2227;47.810;8.810;2022-09-12T20:38:40;2.45;;;1.52;;
4428;SDS011;2227;47.810;8.810;2022-09-12T20:41:12;3.63;;;1.75;;
4428;SDS011;2227;47.810;8.810;2022-09-12T20:43:38;4.28;;;2.10;;
4428;SDS011;2227;47.810;8.810;2022-09-12T20:46:06;5.20;;;1.95;;
4428;SDS011;2227;47.810;8.810;2022-09-12T20:48:35;3.95;;;1.77;;
4428;SDS011;2227;47.810;8.810;2022-09-12T20:51:02;3.42;;;2.10;;
4428;SDS011;2227;47.810;8.810;2022-09-12T20:53:30;3.22;;;1.80;;
4428;SDS011;2227;47.810;8.810;2022-09-12T20:56:00;4.90;;;2.00;;
4428;SDS011;2227;47.810;8.810;2022-09-12T20:58:27;7.85;;;1.90;;
4428;SDS011;2227;47.810;8.810;2022-09-12T21:00:54;6.32;;;1.90;;
4428;SDS011;2227;47.810;8.810;2022-09-12T21:03:21;2.58;;;1.65;;
4428;SDS011;2227;47.810;8.810;2022-09-12T21:05:48;2.85;;;1.70;;
4428;SDS011;2227;47.810;8.810;2022-09-12T21:08:14;4.13;;;1.70;;
4428;SDS011;2227;47.810;8.810;2022-09-12T21:10:42;3.00;;;1.80;;
4428;SDS011;2227;47.810;8.810;2022-09-12T21:13:10;3.80;;;2.00;;